Time;durP1;ratioP1;P1;durP2;ratioP2;P2;SDS_P1;SDS_P2;PMS_P1;PMS_P2;Temp;Humidity;BMP_temperature;BMP_pressure;BME280_temperature;BME280_humidity;BME280_pressure;Samples;Min_cycle;Max_cycle;Signal;HPM_P1;HPM_P2
2022/11/03 00:00:55;;;;;;;4.95;2.35;;;10.80;99.90;;;;;;4985325;28;20125;-75
2022/11/03 00:03:21;;;;;;;3.60;2.58;;;10.80;99.90;;;;;;4977844;28;20038;-75
2022/11/03 00:06:05;;;;;;;6.15;2.10;;;10.80;99.90;;;;;;4967852;28;20046;-75
2022/11/03 00:08:41;;;;;;;12.60;2.85;;;10.80;99.90;;;;;;4965316;28;20053;-75
2022/11/03 00:11:12;;;;;;;8.27;2.25;;;10.70;99.90;;;;;;4966930;28;20125;-75
2022/11/03 00:13:39;;;;;;;2.83;2.15;;;10.70;99.90;;;;;;4965509;28;20062;-76
2022/11/03 00:16:06;;;;;;;6.70;2.85;;;10.70;99.90;;;;;;4967755;28;20058;-75
2022/11/03 00:18:32;;;;;;;6.32;2.90;;;10.70;99.90;;;;;;4967605;28;20058;-75
2022/11/03 00:21:00;;;;;;;5.53;3.08;;;10.70;99.90;;;;;;4967225;28;20039;-75
2022/11/03 00:23:27;;;;;;;6.15;3.63;;;10.60;99.90;;;;;;4966588;28;20093;-75
2022/11/03 00:25:53;;;;;;;3.97;2.35;;;10.60;99.90;;;;;;4957154;28;20043;-75
2022/11/03 00:28:18;;;;;;;3.65;2.38;;;10.60;99.90;;;;;;4947787;28;20049;-75
2022/11/03 00:30:44;;;;;;;9.15;2.58;;;10.60;99.90;;;;;;4966142;28;20038;-75
2022/11/03 00:33:09;;;;;;;2.58;1.55;;;10.60;99.90;;;;;;4966979;28;20051;-75
2022/11/03 00:35:35;;;;;;;6.75;2.33;;;10.60;99.90;;;;;;4967093;28;20118;-75
2022/11/03 00:38:00;;;;;;;4.93;2.90;;;10.50;99.90;;;;;;4975752;28;20081;-75
2022/11/03 00:40:26;;;;;;;4.88;2.53;;;10.50;99.90;;;;;;4985059;28;20047;-75
2022/11/03 00:42:51;;;;;;;10.07;2.75;;;10.50;99.90;;;;;;4986417;28;20457;-76
2022/11/03 00:45:17;;;;;;;8.80;2.15;;;10.50;99.90;;;;;;4986917;28;20571;-75
2022/11/03 00:50:26;;;;;;;6.50;2.97;;;10.50;99.90;;;;;;4966697;28;20050;-75
2022/11/03 00:52:52;;;;;;;7.97;2.45;;;10.50;99.90;;;;;;4966520;28;20050;-75
2022/11/03 00:55:18;;;;;;;5.50;2.50;;;10.50;99.90;;;;;;4965829;28;20039;-75
2022/11/03 00:57:44;;;;;;;7.18;2.35;;;10.40;99.90;;;;;;4965669;28;20047;-75
2022/11/03 01:00:10;;;;;;;9.20;2.80;;;10.40;99.90;;;;;;4966244;28;20051;-75
2022/11/03 01:02:36;;;;;;;4.15;2.90;;;10.40;99.90;;;;;;4969607;28;20065;-75
2022/11/03 01:07:46;;;;;;;8.25;3.22;;;10.40;99.90;;;;;;4966762;28;20113;-75
2022/11/03 01:10:11;;;;;;;4.97;2.10;;;10.40;99.90;;;;;;4965731;28;20489;-75
2022/11/03 01:12:37;;;;;;;4.60;2.10;;;10.40;99.90;;;;;;4966343;28;20466;-75
2022/11/03 01:15:03;;;;;;;7.72;2.72;;;10.40;99.90;;;;;;4965889;28;20414;-76
2022/11/03 01:17:28;;;;;;;5.35;2.30;;;10.40;99.90;;;;;;4966406;28;20082;-75
2022/11/03 01:19:54;;;;;;;4.80;2.65;;;10.30;99.90;;;;;;4965367;28;20043;-75
2022/11/03 01:22:21;;;;;;;6.28;3.45;;;10.30;99.90;;;;;;4965850;28;20057;-76
2022/11/03 01:24:47;;;;;;;5.57;2.58;;;10.30;99.90;;;;;;4965205;28;20074;-76
2022/11/03 01:27:17;;;;;;;4.85;2.03;;;10.30;99.90;;;;;;4965628;28;20623;-75
2022/11/03 01:29:43;;;;;;;6.72;2.30;;;10.40;99.90;;;;;;4964782;28;20097;-75
2022/11/03 01:32:09;;;;;;;5.85;2.03;;;10.30;99.90;;;;;;4965900;28;21091;-75
2022/11/03 01:34:35;;;;;;;5.35;2.53;;;10.30;99.90;;;;;;4966224;28;20074;-75
2022/11/03 01:37:01;;;;;;;3.50;2.22;;;10.30;99.90;;;;;;4965976;28;20059;-75
2022/11/03 01:39:26;;;;;;;2.95;1.73;;;10.30;99.90;;;;;;4965235;28;20508;-76
2022/11/03 01:41:52;;;;;;;4.93;3.22;;;10.30;99.90;;;;;;4966104;28;20035;-75
2022/11/03 01:44:18;;;;;;;8.82;2.88;;;10.30;99.90;;;;;;4966706;28;20053;-75
2022/11/03 01:47:16;;;;;;;7.60;3.10;;;10.30;99.90;;;;;;4966181;28;20548;-76
2022/11/03 01:49:54;;;;;;;5.47;2.28;;;10.30;99.90;;;;;;4966037;28;20051;-75
2022/11/03 01:52:26;;;;;;;5.80;1.80;;;10.30;99.90;;;;;;4966073;28;20038;-76
2022/11/03 01:55:02;;;;;;;3.75;2.38;;;10.30;99.90;;;;;;4964251;28;20130;-75
2022/11/03 01:57:37;;;;;;;17.15;4.13;;;10.30;99.90;;;;;;4966295;28;20494;-75
2022/11/03 02:00:04;;;;;;;3.42;1.80;;;10.20;99.90;;;;;;4965317;28;20043;-74
2022/11/03 02:02:30;;;;;;;7.47;2.83;;;10.20;99.90;;;;;;4957506;28;20074;-75
2022/11/03 02:04:58;;;;;;;8.82;2.25;;;10.20;99.90;;;;;;4965406;28;20446;-75
2022/11/03 02:07:49;;;;;;;8.88;2.42;;;10.30;99.90;;;;;;4965296;28;20522;-75
2022/11/03 02:10:14;;;;;;;4.78;1.85;;;10.20;99.90;;;;;;4963872;28;20098;-75
2022/11/03 02:12:42;;;;;;;4.05;2.70;;;10.20;99.90;;;;;;4965854;28;20454;-75
2022/11/03 02:15:11;;;;;;;7.40;2.50;;;10.20;99.90;;;;;;4965827;28;20090;-75
2022/11/03 02:17:40;;;;;;;3.67;2.15;;;10.20;99.90;;;;;;4965545;28;20070;-75
2022/11/03 02:20:10;;;;;;;7.75;3.50;;;10.20;99.90;;;;;;4973238;28;20042;-74
2022/11/03 02:23:14;;;;;;;5.22;2.13;;;10.20;99.90;;;;;;4989236;28;20042;-75
2022/11/03 02:25:39;;;;;;;5.05;2.40;;;10.20;99.90;;;;;;4964279;28;20101;-75
2022/11/03 02:28:05;;;;;;;8.63;3.70;;;10.20;99.90;;;;;;4969336;28;20043;-75
2022/11/03 02:30:38;;;;;;;10.02;3.80;;;10.30;99.90;;;;;;4968847;28;20263;-75
2022/11/03 02:33:29;;;;;;;2.97;2.67;;;10.20;99.90;;;;;;4966557;28;20046;-75
2022/11/03 02:36:12;;;;;;;2.63;2.15;;;10.20;99.90;;;;;;4949812;28;20513;-75
2022/11/03 02:39:02;;;;;;;4.97;2.60;;;10.30;99.90;;;;;;4955068;28;20098;-75
2022/11/03 02:41:30;;;;;;;4.10;2.85;;;10.30;99.90;;;;;;4964720;28;20145;-75
2022/11/03 02:43:56;;;;;;;3.75;2.38;;;10.30;99.90;;;;;;4968651;28;20054;-75
2022/11/03 02:46:24;;;;;;;3.92;2.00;;;10.30;99.90;;;;;;4968648;28;20055;-75
2022/11/03 02:48:51;;;;;;;2.58;1.90;;;10.30;99.90;;;;;;4968646;28;20042;-77
2022/11/03 02:51:16;;;;;;;3.92;2.60;;;10.30;99.90;;;;;;4955106;28;20582;-75
2022/11/03 02:53:51;;;;;;;4.95;2.25;;;10.30;99.90;;;;;;4948541;28;20035;-75
2022/11/03 02:56:20;;;;;;;4.30;2.30;;;10.30;99.90;;;;;;4949025;28;20051;-75
2022/11/03 02:59:01;;;;;;;4.63;2.50;;;10.30;99.90;;;;;;4960248;28;20046;-75
2022/11/03 03:01:35;;;;;;;3.08;1.90;;;10.30;99.90;;;;;;4967719;28;20104;-75
2022/11/03 03:04:08;;;;;;;13.35;3.28;;;10.40;99.90;;;;;;4968269;28;20049;-75
2022/11/03 03:06:47;;;;;;;3.53;1.80;;;10.30;99.90;;;;;;4968500;28;20053;-75
2022/11/03 03:09:21;;;;;;;4.75;1.95;;;10.30;99.90;;;;;;4967189;28;20054;-75
2022/11/03 03:11:50;;;;;;;8.40;1.85;;;10.30;99.90;;;;;;4967769;28;20462;-75
2022/11/03 03:14:23;;;;;;;9.27;3.22;;;10.40;99.90;;;;;;4968059;28;20058;-75
2022/11/03 03:16:59;;;;;;;7.10;4.32;;;10.40;99.90;;;;;;4968310;28;20089;-75
2022/11/03 03:19:40;;;;;;;6.63;2.10;;;10.40;99.90;;;;;;4967651;28;20039;-75
2022/11/03 03:22:27;;;;;;;5.95;2.30;;;10.40;99.90;;;;;;4965135;28;20042;-75
2022/11/03 03:25:11;;;;;;;4.00;2.10;;;10.40;99.90;;;;;;4965092;28;20086;-75
2022/11/03 03:27:41;;;;;;;9.85;2.40;;;10.40;99.90;;;;;;4961867;28;20035;-75
2022/11/03 03:30:07;;;;;;;6.22;2.38;;;10.50;99.90;;;;;;4968042;28;20058;-75
2022/11/03 03:32:39;;;;;;;3.92;3.15;;;10.50;99.90;;;;;;4968303;28;20049;-75
2022/11/03 03:35:08;;;;;;;4.57;3.38;;;10.50;99.90;;;;;;4967625;28;20070;-74
2022/11/03 03:37:36;;;;;;;4.97;2.50;;;10.50;99.90;;;;;;4968556;28;20409;-75
2022/11/03 03:40:07;;;;;;;8.05;3.55;;;10.50;99.90;;;;;;4966542;28;20061;-76
2022/11/03 03:42:36;;;;;;;9.57;2.42;;;10.50;99.90;;;;;;4968201;28;20043;-75
2022/11/03 03:45:03;;;;;;;5.53;2.28;;;10.50;99.90;;;;;;4948644;29;20138;-75
2022/11/03 03:47:31;;;;;;;4.30;2.22;;;10.50;99.90;;;;;;4977952;28;20046;-75
2022/11/03 03:49:57;;;;;;;3.72;2.70;;;10.50;99.90;;;;;;4968711;28;20516;-75
2022/11/03 03:52:23;;;;;;;2.83;2.10;;;10.50;99.90;;;;;;4967742;28;20051;-75
2022/11/03 03:54:49;;;;;;;10.93;2.15;;;10.50;99.90;;;;;;4966213;28;20057;-75
2022/11/03 03:57:21;;;;;;;5.10;2.90;;;10.50;99.90;;;;;;4985098;28;20406;-75
2022/11/03 03:59:46;;;;;;;5.88;2.83;;;10.50;99.90;;;;;;4968036;28;20087;-75
2022/11/03 04:02:12;;;;;;;6.93;2.75;;;10.50;99.90;;;;;;4967685;28;20046;-75
2022/11/03 04:04:38;;;;;;;5.82;2.78;;;10.50;99.90;;;;;;4967653;28;20046;-75
2022/11/03 04:09:49;;;;;;;1.83;1.60;;;10.50;99.90;;;;;;4965626;28;20058;-75
2022/11/03 04:23:15;;;;;;;3.80;2.20;;;10.50;99.90;;;;;;4965500;28;20058;-75
2022/11/03 04:25:46;;;;;;;5.53;1.90;;;10.40;99.90;;;;;;4962724;28;20074;-75
2022/11/03 04:28:13;;;;;;;4.00;1.35;;;10.40;99.90;;;;;;4966761;28;20034;-75
2022/11/03 04:30:39;;;;;;;6.70;2.58;;;10.40;99.90;;;;;;4965961;28;20539;-75
2022/11/03 04:33:14;;;;;;;14.65;2.63;;;10.40;99.90;;;;;;4967132;28;20038;-75
2022/11/03 04:35:43;;;;;;;2.63;1.50;;;10.30;99.90;;;;;;4967348;28;20095;-75
2022/11/03 04:38:14;;;;;;;7.78;3.28;;;10.30;99.90;;;;;;4976690;28;20038;-75
2022/11/03 04:40:57;;;;;;;9.20;3.13;;;10.30;99.90;;;;;;4979978;28;20061;-75
2022/11/03 04:43:32;;;;;;;8.02;2.63;;;10.30;99.90;;;;;;4965668;28;20390;-75
2022/11/03 04:45:58;;;;;;;6.28;2.55;;;10.20;99.90;;;;;;4966632;28;20047;-75
2022/11/03 04:48:27;;;;;;;5.22;2.38;;;10.20;99.90;;;;;;4966566;28;20050;-75
2022/11/03 04:50:59;;;;;;;5.75;2.50;;;10.20;99.90;;;;;;4974727;28;20047;-75
2022/11/03 04:53:29;;;;;;;7.65;2.08;;;10.20;99.90;;;;;;4985094;28;20097;-75
2022/11/03 04:55:54;;;;;;;6.82;2.55;;;10.10;99.90;;;;;;4984566;28;20039;-75
2022/11/03 04:58:27;;;;;;;14.50;3.15;;;10.10;99.90;;;;;;4986088;28;20564;-76
2022/11/03 05:00:56;;;;;;;10.93;2.75;;;10.10;99.90;;;;;;4985510;28;20038;-75
2022/11/03 05:03:34;;;;;;;4.35;2.42;;;10.10;99.90;;;;;;4986072;28;20049;-75
2022/11/03 05:06:18;;;;;;;7.68;3.00;;;10.10;99.90;;;;;;4975973;28;20051;-75
2022/11/03 05:08:48;;;;;;;5.40;2.65;;;10.00;99.90;;;;;;4965890;28;20410;-75
2022/11/03 05:11:18;;;;;;;4.35;3.00;;;10.00;99.90;;;;;;4965865;28;20043;-75
2022/11/03 05:13:44;;;;;;;7.93;3.00;;;10.00;99.90;;;;;;4964984;28;20055;-75
2022/11/03 05:16:10;;;;;;;7.00;2.67;;;10.00;99.90;;;;;;4965908;28;20091;-75
2022/11/03 05:18:38;;;;;;;4.90;2.85;;;10.00;99.90;;;;;;4966338;28;20049;-75
2022/11/03 05:21:16;;;;;;;5.53;2.78;;;10.00;99.90;;;;;;4966008;28;20125;-75
2022/11/03 05:23:50;;;;;;;8.02;3.35;;;10.00;99.90;;;;;;4965562;28;20050;-75
2022/11/03 05:26:21;;;;;;;5.43;3.13;;;10.00;99.90;;;;;;4965317;28;20154;-74
2022/11/03 05:29:00;;;;;;;5.10;1.90;;;10.00;99.90;;;;;;4965396;28;20051;-75
2022/11/03 05:31:29;;;;;;;8.57;3.53;;;10.00;99.90;;;;;;4961617;28;20083;-75
2022/11/03 05:34:17;;;;;;;8.10;2.20;;;10.00;99.90;;;;;;4956289;28;20050;-74
2022/11/03 05:36:42;;;;;;;5.38;2.75;;;10.00;99.90;;;;;;4968374;28;20043;-75
2022/11/03 05:39:20;;;;;;;6.10;2.63;;;10.00;99.90;;;;;;4962966;28;20046;-74
2022/11/03 05:41:46;;;;;;;6.90;2.78;;;10.00;99.90;;;;;;4964352;28;20046;-74
2022/11/03 05:44:36;;;;;;;3.33;1.95;;;10.00;99.90;;;;;;4964656;28;20054;-74
2022/11/03 05:47:17;;;;;;;9.65;3.50;;;10.00;99.90;;;;;;4958840;28;20541;-76
2022/11/03 05:49:43;;;;;;;5.63;3.17;;;10.00;99.90;;;;;;4962014;28;20150;-75
2022/11/03 05:52:18;;;;;;;3.90;2.10;;;10.10;99.90;;;;;;4964062;28;20608;-75
2022/11/03 05:54:44;;;;;;;5.35;2.78;;;10.10;99.90;;;;;;4966250;28;20049;-75
2022/11/03 05:57:13;;;;;;;4.15;2.33;;;10.10;99.90;;;;;;4964712;28;20042;-74
2022/11/03 05:59:39;;;;;;;21.17;2.85;;;10.10;99.90;;;;;;4969357;28;20054;-74
2022/11/03 06:02:34;;;;;;;5.47;2.30;;;10.10;99.90;;;;;;4964224;28;20039;-74
2022/11/03 06:05:01;;;;;;;8.10;2.35;;;10.10;99.90;;;;;;4967777;28;20192;-74
2022/11/03 06:07:28;;;;;;;9.05;2.33;;;10.10;99.90;;;;;;4968203;28;20402;-74
2022/11/03 06:09:54;;;;;;;7.57;3.05;;;10.10;99.90;;;;;;4972025;28;20061;-75
2022/11/03 06:12:21;;;;;;;11.30;2.38;;;10.10;99.90;;;;;;4971208;28;20046;-76
2022/11/03 06:14:48;;;;;;;7.07;2.20;;;10.10;99.90;;;;;;4964565;28;20074;-74
2022/11/03 06:17:24;;;;;;;4.68;2.53;;;10.10;99.90;;;;;;4967798;28;20085;-74
2022/11/03 06:19:54;;;;;;;6.25;2.42;;;10.10;99.90;;;;;;4975938;28;20049;-74
2022/11/03 06:22:25;;;;;;;3.97;1.70;;;10.20;99.90;;;;;;4968882;28;20043;-75
2022/11/03 06:25:11;;;;;;;3.28;2.05;;;10.10;99.90;;;;;;4967374;28;20038;-75
2022/11/03 06:27:37;;;;;;;7.85;2.47;;;10.10;99.90;;;;;;4968205;28;20604;-74
2022/11/03 06:30:27;;;;;;;9.60;2.78;;;10.20;99.90;;;;;;4976902;28;20070;-75
2022/11/03 06:32:56;;;;;;;18.48;2.70;;;10.10;99.90;;;;;;4971938;28;20030;-75
2022/11/03 06:35:22;;;;;;;8.93;2.42;;;10.20;99.90;;;;;;4974741;28;20060;-75
2022/11/03 06:37:48;;;;;;;7.93;2.08;;;10.20;99.90;;;;;;4975948;28;20501;-75
2022/11/03 06:40:14;;;;;;;5.90;3.17;;;10.10;99.90;;;;;;4979593;28;20117;-75
2022/11/03 06:42:41;;;;;;;5.43;2.13;;;10.10;99.90;;;;;;4983438;28;20138;-75
2022/11/03 06:45:22;;;;;;;3.08;2.05;;;10.10;99.90;;;;;;4968674;28;20097;-75
2022/11/03 06:47:49;;;;;;;10.55;2.50;;;10.10;99.90;;;;;;4968724;28;20497;-75
2022/11/03 06:50:28;;;;;;;11.10;2.55;;;10.10;99.90;;;;;;4968557;28;20453;-75
2022/11/03 06:52:56;;;;;;;4.93;2.75;;;10.10;99.90;;;;;;4969376;28;20133;-75
2022/11/03 06:55:25;;;;;;;6.95;2.58;;;10.10;99.90;;;;;;4965996;28;20042;-75
2022/11/03 06:57:56;;;;;;;3.72;1.50;;;10.10;99.90;;;;;;4965863;28;20098;-75
2022/11/03 07:00:24;;;;;;;7.13;3.70;;;10.10;99.90;;;;;;4968740;28;20047;-75
2022/11/03 07:03:02;;;;;;;5.57;2.97;;;10.10;99.90;;;;;;4969500;28;20098;-76
2022/11/03 07:05:30;;;;;;;6.25;1.95;;;10.10;99.90;;;;;;4969822;28;20438;-75
2022/11/03 07:08:00;;;;;;;7.60;2.90;;;10.10;99.90;;;;;;4978961;28;20053;-74
2022/11/03 07:10:30;;;;;;;3.63;1.75;;;10.10;99.90;;;;;;4970173;28;20066;-74
2022/11/03 07:12:58;;;;;;;4.43;2.38;;;10.10;99.90;;;;;;4965726;28;20497;-74
2022/11/03 07:15:37;;;;;;;11.05;4.57;;;10.10;99.90;;;;;;4974381;28;20060;-74
2022/11/03 07:18:12;;;;;;;3.88;1.83;;;10.10;99.90;;;;;;4984143;28;20046;-74
2022/11/03 07:20:38;;;;;;;7.60;3.65;;;10.10;99.90;;;;;;4965102;28;20038;-74
2022/11/03 07:23:04;;;;;;;7.30;2.17;;;10.10;99.90;;;;;;4977726;28;20661;-74
2022/11/03 07:25:30;;;;;;;4.78;2.65;;;10.20;99.90;;;;;;4961583;28;20035;-74
2022/11/03 07:27:56;;;;;;;16.50;2.65;;;10.20;99.90;;;;;;4961385;28;20043;-74
2022/11/03 07:30:26;;;;;;;7.30;2.58;;;10.20;99.90;;;;;;4972519;28;20046;-74
2022/11/03 07:32:53;;;;;;;4.88;2.70;;;10.30;99.90;;;;;;4974226;28;20049;-74
2022/11/03 07:35:30;;;;;;;15.82;3.28;;;10.30;99.90;;;;;;4972969;28;20035;-75
2022/11/03 07:37:57;;;;;;;7.07;3.03;;;10.30;99.90;;;;;;4984104;28;20046;-75
2022/11/03 07:40:25;;;;;;;3.58;2.00;;;10.30;99.90;;;;;;4985760;28;20460;-74
2022/11/03 07:42:54;;;;;;;3.88;2.42;;;10.30;99.90;;;;;;4986076;28;20655;-75
2022/11/03 07:45:40;;;;;;;6.03;2.92;;;10.30;99.90;;;;;;4986044;28;20041;-76
2022/11/03 07:48:19;;;;;;;4.22;2.78;;;10.30;99.90;;;;;;4985111;28;20134;-74
2022/11/03 07:50:45;;;;;;;5.40;3.15;;;10.30;99.90;;;;;;4985398;28;20054;-74
2022/11/03 07:53:17;;;;;;;5.28;2.50;;;10.40;99.90;;;;;;4984154;28;20101;-74
2022/11/03 07:55:44;;;;;;;5.82;2.58;;;10.40;99.90;;;;;;4986643;28;20050;-74
2022/11/03 07:58:20;;;;;;;12.75;2.78;;;10.40;99.90;;;;;;4985508;28;20054;-75
2022/11/03 08:00:46;;;;;;;4.95;3.28;;;10.40;99.90;;;;;;4986604;28;20339;-74
2022/11/03 08:03:28;;;;;;;4.05;2.90;;;10.40;99.90;;;;;;4986071;28;20053;-75
2022/11/03 08:05:53;;;;;;;14.07;3.05;;;10.40;99.90;;;;;;4986318;28;20506;-74
2022/11/03 08:08:19;;;;;;;15.15;3.75;;;10.40;99.90;;;;;;4985430;28;20046;-76
2022/11/03 08:10:45;;;;;;;6.90;2.40;;;10.50;99.90;;;;;;4985977;28;20454;-74
2022/11/03 08:13:10;;;;;;;2.55;2.05;;;10.50;99.90;;;;;;4985798;28;20058;-75
2022/11/03 08:15:36;;;;;;;6.85;3.50;;;10.50;99.90;;;;;;4985467;28;20046;-75
2022/11/03 08:18:01;;;;;;;4.43;2.80;;;10.50;99.90;;;;;;4984923;28;20034;-74
2022/11/03 08:20:27;;;;;;;6.25;2.75;;;10.60;99.90;;;;;;4985499;28;20096;-74
2022/11/03 08:22:52;;;;;;;4.57;2.95;;;10.60;99.90;;;;;;4984587;28;20085;-74
2022/11/03 08:25:18;;;;;;;8.68;2.70;;;10.60;99.90;;;;;;4980493;28;20103;-75
2022/11/03 08:27:43;;;;;;;13.05;3.28;;;10.60;99.90;;;;;;4966206;28;20051;-74
2022/11/03 08:30:09;;;;;;;5.63;2.13;;;10.70;99.90;;;;;;4964945;28;20062;-76
2022/11/03 08:32:35;;;;;;;5.28;3.42;;;10.70;99.90;;;;;;4966105;28;20053;-74
2022/11/03 08:35:00;;;;;;;5.07;2.50;;;10.70;99.90;;;;;;4965652;28;20043;-74
2022/11/03 08:37:26;;;;;;;4.80;2.03;;;10.70;99.90;;;;;;4964961;28;20041;-74
2022/11/03 08:39:51;;;;;;;4.88;3.40;;;10.80;99.90;;;;;;4965218;28;20387;-75
2022/11/03 08:42:17;;;;;;;5.93;2.92;;;10.80;99.90;;;;;;4966271;28;20429;-74
2022/11/03 08:44:43;;;;;;;3.60;2.60;;;10.80;99.90;;;;;;4966119;28;20456;-75
2022/11/03 08:47:08;;;;;;;11.25;2.63;;;10.80;99.90;;;;;;4965259;28;20049;-75
2022/11/03 08:49:34;;;;;;;6.78;2.90;;;10.80;99.90;;;;;;4964516;28;20109;-74
2022/11/03 08:51:59;;;;;;;12.88;3.17;;;10.90;99.90;;;;;;4963113;28;20047;-75
2022/11/03 08:54:25;;;;;;;11.88;2.88;;;10.90;99.90;;;;;;4964130;28;20054;-74
2022/11/03 08:56:50;;;;;;;4.82;2.42;;;10.90;99.90;;;;;;4965832;28;20081;-74
2022/11/03 08:59:17;;;;;;;6.45;2.67;;;11.00;99.90;;;;;;4965404;28;20117;-74
2022/11/03 09:01:43;;;;;;;3.10;1.90;;;11.00;99.90;;;;;;4965964;28;20042;-74
2022/11/03 09:04:09;;;;;;;4.00;2.55;;;11.10;99.90;;;;;;4964862;28;20085;-75
2022/11/03 09:06:34;;;;;;;5.65;2.28;;;11.20;99.90;;;;;;4980724;28;20110;-74
2022/11/03 09:09:00;;;;;;;8.10;3.05;;;11.20;99.90;;;;;;4964350;28;20039;-75
2022/11/03 09:11:25;;;;;;;8.25;3.58;;;11.20;99.90;;;;;;4965569;28;20101;-74
2022/11/03 09:13:51;;;;;;;5.25;2.67;;;11.30;99.90;;;;;;4963449;28;20070;-75
2022/11/03 09:16:17;;;;;;;5.15;2.42;;;11.30;99.90;;;;;;4965640;28;20050;-74
2022/11/03 09:18:42;;;;;;;9.93;2.72;;;11.30;99.90;;;;;;4965562;28;20452;-75
2022/11/03 09:21:08;;;;;;;3.50;2.85;;;11.40;99.90;;;;;;4964874;28;20049;-74
2022/11/03 09:23:34;;;;;;;4.65;2.42;;;11.40;99.90;;;;;;4964655;28;20409;-74
2022/11/03 09:25:59;;;;;;;8.57;3.42;;;11.40;99.90;;;;;;4964833;28;20425;-74
2022/11/03 09:28:25;;;;;;;6.57;2.63;;;11.50;99.90;;;;;;4964866;28;20383;-74
2022/11/03 09:30:50;;;;;;;7.43;2.28;;;11.50;99.90;;;;;;4964680;28;20047;-75
2022/11/03 09:33:16;;;;;;;3.90;2.75;;;11.50;99.90;;;;;;4965420;28;20042;-75
2022/11/03 09:35:42;;;;;;;3.30;2.45;;;11.60;99.90;;;;;;4965016;28;20433;-75
2022/11/03 09:38:07;;;;;;;4.25;2.40;;;11.60;99.90;;;;;;4963876;28;20049;-74
2022/11/03 09:40:34;;;;;;;3.63;1.73;;;11.70;99.90;;;;;;4963619;28;20113;-74
2022/11/03 09:43:00;;;;;;;6.47;2.40;;;11.70;99.90;;;;;;4964887;28;20335;-74
2022/11/03 09:45:26;;;;;;;5.15;2.97;;;11.70;99.90;;;;;;4963935;28;20046;-75
2022/11/03 09:47:51;;;;;;;6.93;3.10;;;11.80;99.90;;;;;;4964619;28;20034;-75
2022/11/03 09:50:19;;;;;;;6.75;2.75;;;11.80;99.90;;;;;;4965323;28;20526;-76
2022/11/03 09:52:45;;;;;;;2.95;2.08;;;11.80;99.90;;;;;;4963926;28;20272;-75
2022/11/03 09:55:14;;;;;;;4.95;2.22;;;11.80;99.90;;;;;;4964795;28;20065;-75
2022/11/03 09:57:40;;;;;;;7.70;3.40;;;11.80;99.90;;;;;;4965055;28;20046;-74
2022/11/03 10:00:18;;;;;;;5.88;2.55;;;11.90;99.90;;;;;;4962941;28;20042;-76
2022/11/03 10:02:44;;;;;;;6.45;3.38;;;11.90;99.90;;;;;;4964625;28;20098;-74
2022/11/03 10:05:13;;;;;;;5.32;2.60;;;11.90;99.90;;;;;;4964667;28;20497;-75
2022/11/03 10:07:42;;;;;;;5.13;2.25;;;11.90;99.90;;;;;;4964446;28;20244;-75
2022/11/03 10:10:15;;;;;;;8.55;2.65;;;12.00;99.90;;;;;;4964431;28;20540;-75
2022/11/03 10:12:41;;;;;;;11.60;2.50;;;12.00;99.90;;;;;;4964594;28;20051;-75
2022/11/03 10:15:16;;;;;;;4.85;2.92;;;12.00;99.90;;;;;;4964415;28;20594;-75
2022/11/03 10:17:43;;;;;;;8.88;3.78;;;12.00;99.90;;;;;;4964581;28;20069;-75
2022/11/03 10:20:14;;;;;;;4.13;2.28;;;12.10;99.90;;;;;;4963372;28;20209;-74
2022/11/03 10:22:42;;;;;;;3.53;2.22;;;12.10;99.90;;;;;;4962651;28;20098;-75
2022/11/03 10:25:37;;;;;;;5.63;2.83;;;12.10;99.90;;;;;;4962891;28;20051;-74
2022/11/03 10:28:19;;;;;;;7.90;3.15;;;12.10;99.90;;;;;;4964073;28;20106;-75
2022/11/03 10:30:56;;;;;;;16.42;3.28;;;12.10;99.90;;;;;;4965202;28;20078;-74
2022/11/03 10:33:35;;;;;;;4.60;2.58;;;12.10;99.90;;;;;;4964405;28;20043;-75
2022/11/03 10:36:03;;;;;;;3.65;2.15;;;12.10;99.90;;;;;;4964319;28;20042;-74
2022/11/03 10:38:34;;;;;;;5.28;2.92;;;12.20;99.90;;;;;;4963369;28;20537;-74
2022/11/03 10:41:10;;;;;;;5.00;2.50;;;12.20;99.90;;;;;;4949287;28;20054;-75
2022/11/03 10:43:37;;;;;;;6.22;2.83;;;12.20;99.90;;;;;;4967950;28;20046;-74
2022/11/03 10:46:13;;;;;;;4.53;1.90;;;12.30;99.90;;;;;;4966733;28;20612;-76
2022/11/03 10:48:39;;;;;;;2.28;1.75;;;12.20;99.90;;;;;;4968001;28;20054;-75
2022/11/03 10:51:08;;;;;;;5.53;2.80;;;12.40;99.90;;;;;;4967677;28;20495;-74
2022/11/03 10:53:33;;;;;;;5.53;2.60;;;12.30;99.90;;;;;;4967020;28;20409;-75
2022/11/03 10:55:59;;;;;;;4.60;1.70;;;12.30;99.90;;;;;;4966611;28;20042;-74
2022/11/03 10:58:24;;;;;;;4.18;2.05;;;12.40;99.90;;;;;;4966348;28;20564;-74
2022/11/03 11:00:50;;;;;;;3.58;1.90;;;12.40;99.90;;;;;;4950249;28;20082;-75
2022/11/03 11:03:16;;;;;;;3.70;1.83;;;12.50;99.90;;;;;;4968192;28;20061;-74
2022/11/03 11:05:45;;;;;;;4.90;2.60;;;12.50;99.90;;;;;;4967435;28;20046;-74
2022/11/03 11:08:14;;;;;;;4.65;2.85;;;12.50;99.90;;;;;;4966681;28;20043;-75
2022/11/03 11:10:43;;;;;;;4.40;2.85;;;12.60;99.90;;;;;;4967883;28;20135;-74
2022/11/03 11:13:20;;;;;;;4.75;2.05;;;12.60;99.90;;;;;;4967397;28;20058;-75
2022/11/03 11:15:59;;;;;;;3.15;1.73;;;12.70;99.90;;;;;;4967105;28;20413;-74
2022/11/03 11:18:28;;;;;;;8.13;2.40;;;12.70;99.90;;;;;;4965881;28;20043;-75
2022/11/03 11:20:59;;;;;;;6.88;2.83;;;12.70;99.90;;;;;;4965862;28;20051;-75
2022/11/03 11:23:30;;;;;;;4.10;2.00;;;12.70;99.90;;;;;;4967038;28;20050;-74
2022/11/03 11:26:14;;;;;;;3.33;2.58;;;12.70;99.90;;;;;;4967166;28;20057;-75
2022/11/03 11:29:08;;;;;;;6.43;3.58;;;12.80;99.90;;;;;;4967382;28;20061;-77
2022/11/03 11:31:38;;;;;;;7.15;3.03;;;12.80;99.90;;;;;;4971728;28;20039;-73
2022/11/03 11:34:16;;;;;;;7.93;2.90;;;12.80;99.90;;;;;;4966674;28;20078;-74
2022/11/03 11:36:42;;;;;;;3.55;2.63;;;12.80;99.90;;;;;;4965080;28;20122;-77
2022/11/03 11:39:32;;;;;;;5.20;2.83;;;12.90;99.90;;;;;;4971222;28;20101;-76
2022/11/03 11:42:10;;;;;;;4.28;2.30;;;12.90;99.90;;;;;;4959201;28;20626;-76
2022/11/03 11:44:42;;;;;;;4.95;1.65;;;13.00;99.90;;;;;;4957919;28;20050;-76
2022/11/03 11:47:26;;;;;;;8.77;2.78;;;12.90;99.90;;;;;;4967659;28;20221;-77
2022/11/03 11:50:08;;;;;;;3.00;2.03;;;13.00;99.90;;;;;;4967347;28;20584;-78
2022/11/03 11:52:36;;;;;;;5.72;1.83;;;13.00;99.90;;;;;;4965332;28;20054;-76
2022/11/03 11:55:03;;;;;;;6.07;2.58;;;13.10;99.90;;;;;;4967325;28;20096;-76
2022/11/03 11:57:32;;;;;;;4.45;2.17;;;13.00;99.90;;;;;;4967201;28;20047;-76
2022/11/03 11:59:58;;;;;;;3.22;2.08;;;13.10;99.90;;;;;;4967675;28;20065;-76
2022/11/03 12:02:28;;;;;;;9.02;2.92;;;13.10;99.90;;;;;;4967582;28;20043;-76
2022/11/03 12:05:02;;;;;;;5.65;2.75;;;13.10;99.90;;;;;;4973833;28;20074;-76
2022/11/03 12:07:32;;;;;;;3.35;2.10;;;13.00;99.90;;;;;;4970349;28;20063;-76
2022/11/03 12:10:18;;;;;;;6.93;2.20;;;13.10;99.90;;;;;;4961478;28;20109;-79
2022/11/03 12:12:45;;;;;;;5.13;2.25;;;13.10;99.90;;;;;;4965123;28;20413;-79
2022/11/03 12:15:52;;;;;;;3.67;2.65;;;13.10;99.90;;;;;;4965028;28;20494;-80
2022/11/03 12:18:34;;;;;;;6.03;1.95;;;13.10;99.90;;;;;;4965537;28;20059;-77
2022/11/03 12:21:01;;;;;;;2.58;2.35;;;13.10;99.90;;;;;;4966337;28;20133;-81
2022/11/03 12:23:42;;;;;;;3.75;2.30;;;13.10;99.90;;;;;;4963132;28;20043;-82
2022/11/03 12:26:33;;;;;;;3.70;2.50;;;13.10;99.90;;;;;;4965822;28;20039;-79
2022/11/03 12:28:59;;;;;;;7.13;2.85;;;13.10;99.90;;;;;;4962370;28;20078;-77
2022/11/03 12:31:24;;;;;;;4.53;2.20;;;13.10;99.90;;;;;;4966818;28;20779;-78
2022/11/03 12:33:50;;;;;;;2.63;1.98;;;13.10;99.90;;;;;;4966827;28;20545;-78
2022/11/03 12:36:16;;;;;;;5.95;2.58;;;13.20;99.90;;;;;;4966207;28;20034;-78
2022/11/03 12:38:42;;;;;;;5.03;2.15;;;13.20;99.90;;;;;;4965694;28;20050;-80
2022/11/03 12:41:25;;;;;;;4.70;1.60;;;13.20;99.90;;;;;;4965989;28;20090;-80
2022/11/03 12:43:52;;;;;;;2.70;1.60;;;13.20;99.90;;;;;;4960293;28;20113;-76
2022/11/03 12:46:19;;;;;;;3.45;1.95;;;13.30;99.90;;;;;;4966694;28;20185;-76
2022/11/03 12:48:46;;;;;;;10.88;2.20;;;13.30;99.90;;;;;;4967069;28;20035;-75
2022/11/03 12:51:14;;;;;;;4.65;2.38;;;13.30;99.90;;;;;;4965530;28;20178;-76
2022/11/03 12:53:40;;;;;;;3.50;2.05;;;13.30;99.90;;;;;;4965085;28;20502;-76
2022/11/03 12:56:07;;;;;;;4.35;2.40;;;13.30;99.90;;;;;;4966166;28;20069;-76
2022/11/03 12:58:33;;;;;;;8.20;2.70;;;13.30;99.90;;;;;;4966426;28;20046;-76
2022/11/03 13:00:59;;;;;;;4.13;1.92;;;13.30;99.90;;;;;;4973172;28;20038;-77
2022/11/03 13:03:25;;;;;;;3.65;1.95;;;13.30;99.90;;;;;;4968175;28;20150;-80
2022/11/03 13:05:51;;;;;;;3.50;2.20;;;13.30;99.90;;;;;;4966307;28;20533;-81
2022/11/03 13:08:16;;;;;;;3.20;1.60;;;13.30;99.90;;;;;;4965399;28;20126;-77
2022/11/03 13:10:42;;;;;;;8.05;1.90;;;13.30;99.90;;;;;;4970989;28;20393;-78
2022/11/03 13:13:08;;;;;;;4.50;1.67;;;13.40;99.90;;;;;;4965844;28;20093;-77
2022/11/03 13:15:33;;;;;;;4.32;1.80;;;13.30;99.90;;;;;;4964888;28;20038;-80
2022/11/03 13:17:59;;;;;;;5.88;2.03;;;13.30;99.90;;;;;;4965593;28;20046;-79
2022/11/03 13:20:24;;;;;;;3.30;1.75;;;13.30;99.90;;;;;;4982719;28;20053;-78